sensor_id;sensor_type;location;lat;lon;timestamp;temperature;humidity
75738;DHT22;64356;45.638;13.764;2023-03-01T00:01:30;18.50;45.70
75738;DHT22;64356;45.638;13.764;2023-03-01T00:03:57;18.60;45.50
75738;DHT22;64356;45.638;13.764;2023-03-01T00:06:23;18.60;45.50
75738;DHT22;64356;45.638;13.764;2023-03-01T00:08:49;18.60;45.60
75738;DHT22;64356;45.638;13.764;2023-03-01T00:11:22;18.50;45.50
75738;DHT22;64356;45.638;13.764;2023-03-01T00:13:50;18.50;45.60
75738;DHT22;64356;45.638;13.764;2023-03-01T00:16:37;18.60;45.50
75738;DHT22;64356;45.638;13.764;2023-03-01T00:19:08;18.50;45.40
75738;DHT22;64356;45.638;13.764;2023-03-01T00:21:35;18.50;46.00
75738;DHT22;64356;45.638;13.764;2023-03-01T00:24:01;18.50;45.30
75738;DHT22;64356;45.638;13.764;2023-03-01T00:26:27;18.50;45.30
75738;DHT22;64356;45.638;13.764;2023-03-01T00:28:53;18.50;45.30
75738;DHT22;64356;45.638;13.764;2023-03-01T00:31:28;18.50;45.40
75738;DHT22;64356;45.638;13.764;2023-03-01T00:33:59;18.50;45.30
75738;DHT22;64356;45.638;13.764;2023-03-01T00:36:27;18.50;45.20
75738;DHT22;64356;45.638;13.764;2023-03-01T00:38:53;18.50;45.10
75738;DHT22;64356;45.638;13.764;2023-03-01T00:41:21;18.50;45.00
75738;DHT22;64356;45.638;13.764;2023-03-01T00:43:49;18.50;44.90
75738;DHT22;64356;45.638;13.764;2023-03-01T00:46:18;18.50;44.90
75738;DHT22;64356;45.638;13.764;2023-03-01T00:48:45;18.50;44.90
75738;DHT22;64356;45.638;13.764;2023-03-01T00:51:19;18.50;44.90
75738;DHT22;64356;45.638;13.764;2023-03-01T00:53:46;18.50;44.80
75738;DHT22;64356;45.638;13.764;2023-03-01T00:56:14;18.50;44.90
75738;DHT22;64356;45.638;13.764;2023-03-01T00:58:40;18.50;44.80
75738;DHT22;64356;45.638;13.764;2023-03-01T01:01:10;18.50;44.80
75738;DHT22;64356;45.638;13.764;2023-03-01T01:03:46;18.50;44.70
75738;DHT22;64356;45.638;13.764;2023-03-01T01:06:20;18.50;44.80
75738;DHT22;64356;45.638;13.764;2023-03-01T01:08:46;18.50;44.60
75738;DHT22;64356;45.638;13.764;2023-03-01T01:11:12;18.50;44.80
75738;DHT22;64356;45.638;13.764;2023-03-01T01:13:39;18.50;44.70
75738;DHT22;64356;45.638;13.764;2023-03-01T01:16:06;18.50;44.70
75738;DHT22;64356;45.638;13.764;2023-03-01T01:18:32;18.50;44.70
75738;DHT22;64356;45.638;13.764;2023-03-01T01:20:57;18.40;45.20
75738;DHT22;64356;45.638;13.764;2023-03-01T01:23:23;18.50;44.70
75738;DHT22;64356;45.638;13.764;2023-03-01T01:25:49;18.50;44.60
75738;DHT22;64356;45.638;13.764;2023-03-01T01:28:14;18.50;44.50
75738;DHT22;64356;45.638;13.764;2023-03-01T01:30:40;18.50;44.60
75738;DHT22;64356;45.638;13.764;2023-03-01T01:33:06;18.50;44.40
75738;DHT22;64356;45.638;13.764;2023-03-01T01:35:31;18.50;44.50
75738;DHT22;64356;45.638;13.764;2023-03-01T01:37:57;18.50;44.50
75738;DHT22;64356;45.638;13.764;2023-03-01T01:40:23;18.40;44.50
75738;DHT22;64356;45.638;13.764;2023-03-01T01:42:48;18.40;44.50
75738;DHT22;64356;45.638;13.764;2023-03-01T01:45:33;18.40;44.50
75738;DHT22;64356;45.638;13.764;2023-03-01T01:48:12;18.40;44.40
75738;DHT22;64356;45.638;13.764;2023-03-01T01:50:40;18.40;44.30
75738;DHT22;64356;45.638;13.764;2023-03-01T01:53:24;18.40;44.30
75738;DHT22;64356;45.638;13.764;2023-03-01T01:55:55;18.40;44.30
75738;DHT22;64356;45.638;13.764;2023-03-01T01:58:25;18.40;44.30
75738;DHT22;64356;45.638;13.764;2023-03-01T02:00:53;18.40;44.40
75738;DHT22;64356;45.638;13.764;2023-03-01T02:03:24;18.40;44.80
75738;DHT22;64356;45.638;13.764;2023-03-01T02:08:26;18.40;44.20
75738;DHT22;64356;45.638;13.764;2023-03-01T02:10:54;18.40;44.20
75738;DHT22;64356;45.638;13.764;2023-03-01T02:13:22;18.40;44.20
75738;DHT22;64356;45.638;13.764;2023-03-01T02:15:48;18.40;44.20
75738;DHT22;64356;45.638;13.764;2023-03-01T02:18:17;18.40;44.10
75738;DHT22;64356;45.638;13.764;2023-03-01T02:23:28;18.40;44.00
75738;DHT22;64356;45.638;13.764;2023-03-01T02:26:40;18.40;44.00
75738;DHT22;64356;45.638;13.764;2023-03-01T02:28:56;18.40;43.90
75738;DHT22;64356;45.638;13.764;2023-03-01T02:31:22;18.40;44.00
75738;DHT22;64356;45.638;13.764;2023-03-01T02:34:13;18.40;44.00
75738;DHT22;64356;45.638;13.764;2023-03-01T02:36:47;18.40;43.90
75738;DHT22;64356;45.638;13.764;2023-03-01T02:39:17;18.40;43.80
75738;DHT22;64356;45.638;13.764;2023-03-01T02:41:48;18.40;43.80
75738;DHT22;64356;45.638;13.764;2023-03-01T02:44:15;18.40;43.80
75738;DHT22;64356;45.638;13.764;2023-03-01T02:46:43;18.40;43.80
75738;DHT22;64356;45.638;13.764;2023-03-01T02:54:56;18.40;43.60
75738;DHT22;64356;45.638;13.764;2023-03-01T02:57:24;18.40;43.70
75738;DHT22;64356;45.638;13.764;2023-03-01T02:59:51;18.40;43.60
75738;DHT22;64356;45.638;13.764;2023-03-01T03:02:29;18.40;43.70
75738;DHT22;64356;45.638;13.764;2023-03-01T03:05:27;18.40;43.70
75738;DHT22;64356;45.638;13.764;2023-03-01T03:07:53;18.40;43.60
75738;DHT22;64356;45.638;13.764;2023-03-01T03:10:32;18.40;43.70
75738;DHT22;64356;45.638;13.764;2023-03-01T03:13:01;18.40;43.70
75738;DHT22;64356;45.638;13.764;2023-03-01T03:15:28;18.40;43.70
75738;DHT22;64356;45.638;13.764;2023-03-01T03:17:55;18.40;43.80
75738;DHT22;64356;45.638;13.764;2023-03-01T03:20:22;18.40;43.70
75738;DHT22;64356;45.638;13.764;2023-03-01T03:22:53;18.40;43.70
75738;DHT22;64356;45.638;13.764;2023-03-01T03:25:20;18.40;43.90
75738;DHT22;64356;45.638;13.764;2023-03-01T03:27:48;18.40;43.90
75738;DHT22;64356;45.638;13.764;2023-03-01T03:30:16;18.40;44.00
75738;DHT22;64356;45.638;13.764;2023-03-01T03:32:44;18.40;43.90
75738;DHT22;64356;45.638;13.764;2023-03-01T03:35:15;18.40;43.90
75738;DHT22;64356;45.638;13.764;2023-03-01T03:37:41;18.40;43.80
75738;DHT22;64356;45.638;13.764;2023-03-01T03:40:26;18.40;43.90
75738;DHT22;64356;45.638;13.764;2023-03-01T03:42:52;18.40;43.70
75738;DHT22;64356;45.638;13.764;2023-03-01T03:45:18;18.40;43.60
75738;DHT22;64356;45.638;13.764;2023-03-01T03:47:44;18.40;43.70
75738;DHT22;64356;45.638;13.764;2023-03-01T03:50:15;18.30;43.60
75738;DHT22;64356;45.638;13.764;2023-03-01T03:52:41;18.30;43.40
75738;DHT22;64356;45.638;13.764;2023-03-01T03:55:08;18.30;43.40
75738;DHT22;64356;45.638;13.764;2023-03-01T03:57:38;18.40;43.50
75738;DHT22;64356;45.638;13.764;2023-03-01T04:00:06;18.40;43.50
75738;DHT22;64356;45.638;13.764;2023-03-01T04:02:41;18.30;43.40
75738;DHT22;64356;45.638;13.764;2023-03-01T04:05:09;18.40;43.40
75738;DHT22;64356;45.638;13.764;2023-03-01T04:07:36;18.30;43.30
75738;DHT22;64356;45.638;13.764;2023-03-01T04:10:07;18.30;43.20
75738;DHT22;64356;45.638;13.764;2023-03-01T04:12:34;18.30;43.80
75738;DHT22;64356;45.638;13.764;2023-03-01T04:15:04;18.40;43.30
75738;DHT22;64356;45.638;13.764;2023-03-01T04:17:39;18.40;43.30
75738;DHT22;64356;45.638;13.764;2023-03-01T04:20:05;18.30;43.20
75738;DHT22;64356;45.638;13.764;2023-03-01T04:22:32;18.30;43.20
75738;DHT22;64356;45.638;13.764;2023-03-01T04:24:58;18.40;43.10
75738;DHT22;64356;45.638;13.764;2023-03-01T04:27:34;18.30;43.20
75738;DHT22;64356;45.638;13.764;2023-03-01T04:30:00;18.30;43.10
75738;DHT22;64356;45.638;13.764;2023-03-01T04:32:26;18.30;43.10
75738;DHT22;64356;45.638;13.764;2023-03-01T04:34:51;18.30;43.70
75738;DHT22;64356;45.638;13.764;2023-03-01T04:37:17;18.30;43.10
75738;DHT22;64356;45.638;13.764;2023-03-01T04:39:43;18.30;43.00
75738;DHT22;64356;45.638;13.764;2023-03-01T04:42:13;18.30;43.10
75738;DHT22;64356;45.638;13.764;2023-03-01T04:44:39;18.30;43.00
75738;DHT22;64356;45.638;13.764;2023-03-01T04:47:05;18.30;43.10
75738;DHT22;64356;45.638;13.764;2023-03-01T04:49:31;18.30;43.00
75738;DHT22;64356;45.638;13.764;2023-03-01T04:51:57;18.30;43.00
75738;DHT22;64356;45.638;13.764;2023-03-01T04:54:31;18.30;43.00
75738;DHT22;64356;45.638;13.764;2023-03-01T04:56:57;18.30;43.00
75738;DHT22;64356;45.638;13.764;2023-03-01T04:59:22;18.30;42.90
75738;DHT22;64356;45.638;13.764;2023-03-01T05:01:50;18.30;43.10
75738;DHT22;64356;45.638;13.764;2023-03-01T05:04:15;18.30;43.00
75738;DHT22;64356;45.638;13.764;2023-03-01T05:06:41;18.30;43.00
75738;DHT22;64356;45.638;13.764;2023-03-01T05:09:07;18.30;42.90
75738;DHT22;64356;45.638;13.764;2023-03-01T05:11:33;18.30;42.90
75738;DHT22;64356;45.638;13.764;2023-03-01T05:14:05;18.30;42.80
75738;DHT22;64356;45.638;13.764;2023-03-01T05:16:31;18.30;43.00
75738;DHT22;64356;45.638;13.764;2023-03-01T05:18:58;18.30;42.80
75738;DHT22;64356;45.638;13.764;2023-03-01T05:21:24;18.30;43.00
75738;DHT22;64356;45.638;13.764;2023-03-01T05:23:50;18.30;42.90
75738;DHT22;64356;45.638;13.764;2023-03-01T05:26:17;18.30;42.80
75738;DHT22;64356;45.638;13.764;2023-03-01T05:28:44;18.30;42.70
75738;DHT22;64356;45.638;13.764;2023-03-01T05:31:10;18.30;42.70
75738;DHT22;64356;45.638;13.764;2023-03-01T05:33:40;18.30;42.70
75738;DHT22;64356;45.638;13.764;2023-03-01T05:36:07;18.30;42.70
75738;DHT22;64356;45.638;13.764;2023-03-01T05:38:33;18.30;42.60
75738;DHT22;64356;45.638;13.764;2023-03-01T05:40:59;18.30;42.70
75738;DHT22;64356;45.638;13.764;2023-03-01T05:43:25;18.30;42.70
75738;DHT22;64356;45.638;13.764;2023-03-01T05:45:51;18.30;42.60
75738;DHT22;64356;45.638;13.764;2023-03-01T05:48:17;18.30;42.40
75738;DHT22;64356;45.638;13.764;2023-03-01T05:50:45;18.30;42.40
75738;DHT22;64356;45.638;13.764;2023-03-01T05:53:17;18.30;42.40
75738;DHT22;64356;45.638;13.764;2023-03-01T05:55:45;18.30;42.40
75738;DHT22;64356;45.638;13.764;2023-03-01T05:58:21;18.30;42.30
75738;DHT22;64356;45.638;13.764;2023-03-01T06:00:48;18.30;42.40
75738;DHT22;64356;45.638;13.764;2023-03-01T06:03:15;18.20;42.30
75738;DHT22;64356;45.638;13.764;2023-03-01T06:05:41;18.30;42.40
75738;DHT22;64356;45.638;13.764;2023-03-01T06:08:09;18.30;42.30
75738;DHT22;64356;45.638;13.764;2023-03-01T06:10:35;18.30;42.30
75738;DHT22;64356;45.638;13.764;2023-03-01T06:13:01;18.30;42.30
75738;DHT22;64356;45.638;13.764;2023-03-01T06:15:26;18.30;42.50
75738;DHT22;64356;45.638;13.764;2023-03-01T06:17:54;18.30;42.40
75738;DHT22;64356;45.638;13.764;2023-03-01T06:20:25;18.30;42.40
75738;DHT22;64356;45.638;13.764;2023-03-01T06:22:51;18.30;42.40
75738;DHT22;64356;45.638;13.764;2023-03-01T06:25:20;18.30;42.40
75738;DHT22;64356;45.638;13.764;2023-03-01T06:27:46;18.30;42.40
75738;DHT22;64356;45.638;13.764;2023-03-01T06:30:14;18.30;42.70
75738;DHT22;64356;45.638;13.764;2023-03-01T06:32:41;18.30;42.70
75738;DHT22;64356;45.638;13.764;2023-03-01T06:35:11;18.30;42.70
75738;DHT22;64356;45.638;13.764;2023-03-01T06:37:36;18.40;43.30
75738;DHT22;64356;45.638;13.764;2023-03-01T06:40:04;18.40;43.60
75738;DHT22;64356;45.638;13.764;2023-03-01T06:42:38;18.40;43.60
75738;DHT22;64356;45.638;13.764;2023-03-01T06:45:05;18.40;44.20
75738;DHT22;64356;45.638;13.764;2023-03-01T06:47:32;18.40;45.90
75738;DHT22;64356;45.638;13.764;2023-03-01T06:50:02;18.50;45.40
75738;DHT22;64356;45.638;13.764;2023-03-01T06:52:28;18.50;45.90
75738;DHT22;64356;45.638;13.764;2023-03-01T06:54:54;18.50;43.70
75738;DHT22;64356;45.638;13.764;2023-03-01T06:57:20;18.50;44.20
75738;DHT22;64356;45.638;13.764;2023-03-01T06:59:47;18.50;44.10
75738;DHT22;64356;45.638;13.764;2023-03-01T07:02:13;18.40;41.90
75738;DHT22;64356;45.638;13.764;2023-03-01T07:04:40;18.30;41.10
75738;DHT22;64356;45.638;13.764;2023-03-01T07:07:06;18.30;41.60
75738;DHT22;64356;45.638;13.764;2023-03-01T07:09:32;18.30;41.80
75738;DHT22;64356;45.638;13.764;2023-03-01T07:11:58;18.30;42.60
75738;DHT22;64356;45.638;13.764;2023-03-01T07:14:24;18.30;43.10
75738;DHT22;64356;45.638;13.764;2023-03-01T07:16:54;18.40;43.30
75738;DHT22;64356;45.638;13.764;2023-03-01T07:19:20;18.40;44.90
75738;DHT22;64356;45.638;13.764;2023-03-01T07:21:45;18.40;45.00
75738;DHT22;64356;45.638;13.764;2023-03-01T07:24:11;18.40;43.60
75738;DHT22;64356;45.638;13.764;2023-03-01T07:26:37;18.40;43.60
75738;DHT22;64356;45.638;13.764;2023-03-01T07:29:05;18.40;43.60
75738;DHT22;64356;45.638;13.764;2023-03-01T07:31:31;18.40;43.70
75738;DHT22;64356;45.638;13.764;2023-03-01T07:33:57;18.40;43.90
75738;DHT22;64356;45.638;13.764;2023-03-01T07:36:23;18.40;43.70
75738;DHT22;64356;45.638;13.764;2023-03-01T07:38:49;18.50;43.90
75738;DHT22;64356;45.638;13.764;2023-03-01T07:41:14;18.50;44.20
75738;DHT22;64356;45.638;13.764;2023-03-01T07:43:40;18.50;44.80
75738;DHT22;64356;45.638;13.764;2023-03-01T07:46:06;18.50;45.00
75738;DHT22;64356;45.638;13.764;2023-03-01T07:48:32;18.50;44.30
75738;DHT22;64356;45.638;13.764;2023-03-01T07:51:03;18.50;44.50
75738;DHT22;64356;45.638;13.764;2023-03-01T07:53:29;18.50;44.60
75738;DHT22;64356;45.638;13.764;2023-03-01T07:56:08;18.50;44.40
75738;DHT22;64356;45.638;13.764;2023-03-01T07:58:35;18.60;45.40
75738;DHT22;64356;45.638;13.764;2023-03-01T08:01:03;18.60;46.10
75738;DHT22;64356;45.638;13.764;2023-03-01T08:03:29;18.60;45.70
75738;DHT22;64356;45.638;13.764;2023-03-01T08:05:55;18.60;45.60
75738;DHT22;64356;45.638;13.764;2023-03-01T08:08:21;18.60;45.30
75738;DHT22;64356;45.638;13.764;2023-03-01T08:10:46;18.60;45.40
75738;DHT22;64356;45.638;13.764;2023-03-01T08:13:12;18.60;45.40
75738;DHT22;64356;45.638;13.764;2023-03-01T08:15:38;18.60;46.20
75738;DHT22;64356;45.638;13.764;2023-03-01T08:18:03;18.60;46.70
75738;DHT22;64356;45.638;13.764;2023-03-01T08:20:29;18.60;46.70
75738;DHT22;64356;45.638;13.764;2023-03-01T08:22:55;18.70;46.60
75738;DHT22;64356;45.638;13.764;2023-03-01T08:25:22;18.70;47.00
75738;DHT22;64356;45.638;13.764;2023-03-01T08:27:48;18.70;46.90
75738;DHT22;64356;45.638;13.764;2023-03-01T08:30:14;18.70;46.50
75738;DHT22;64356;45.638;13.764;2023-03-01T08:32:40;18.60;46.60
75738;DHT22;64356;45.638;13.764;2023-03-01T08:35:06;18.60;46.30
75738;DHT22;64356;45.638;13.764;2023-03-01T08:37:32;18.60;46.30
75738;DHT22;64356;45.638;13.764;2023-03-01T08:39:59;18.60;46.30
75738;DHT22;64356;45.638;13.764;2023-03-01T08:42:26;18.60;46.10
75738;DHT22;64356;45.638;13.764;2023-03-01T08:44:51;18.60;46.00
75738;DHT22;64356;45.638;13.764;2023-03-01T08:47:17;18.60;46.40
75738;DHT22;64356;45.638;13.764;2023-03-01T08:49:43;18.60;46.70
75738;DHT22;64356;45.638;13.764;2023-03-01T08:52:08;18.60;46.90
75738;DHT22;64356;45.638;13.764;2023-03-01T08:54:34;18.60;46.80
75738;DHT22;64356;45.638;13.764;2023-03-01T08:57:02;18.60;47.00
75738;DHT22;64356;45.638;13.764;2023-03-01T08:59:28;18.70;46.90
75738;DHT22;64356;45.638;13.764;2023-03-01T09:01:55;18.70;47.20
75738;DHT22;64356;45.638;13.764;2023-03-01T09:04:21;18.70;47.10
75738;DHT22;64356;45.638;13.764;2023-03-01T09:06:47;18.70;47.60
75738;DHT22;64356;45.638;13.764;2023-03-01T09:09:16;18.80;49.00
75738;DHT22;64356;45.638;13.764;2023-03-01T09:11:43;18.90;50.10
75738;DHT22;64356;45.638;13.764;2023-03-01T09:14:09;18.90;49.10
75738;DHT22;64356;45.638;13.764;2023-03-01T09:16:35;19.00;49.60
75738;DHT22;64356;45.638;13.764;2023-03-01T09:19:02;19.00;48.80
75738;DHT22;64356;45.638;13.764;2023-03-01T09:21:28;19.00;48.40
75738;DHT22;64356;45.638;13.764;2023-03-01T09:23:56;19.00;48.10
75738;DHT22;64356;45.638;13.764;2023-03-01T09:26:23;19.10;48.20
75738;DHT22;64356;45.638;13.764;2023-03-01T09:28:51;19.10;48.10
75738;DHT22;64356;45.638;13.764;2023-03-01T09:31:19;19.20;48.40
75738;DHT22;64356;45.638;13.764;2023-03-01T09:33:47;19.20;48.40
75738;DHT22;64356;45.638;13.764;2023-03-01T09:36:19;19.20;48.30
75738;DHT22;64356;45.638;13.764;2023-03-01T09:38:45;19.20;48.20
75738;DHT22;64356;45.638;13.764;2023-03-01T09:43:48;19.30;48.80
75738;DHT22;64356;45.638;13.764;2023-03-01T09:46:21;19.30;47.90
75738;DHT22;64356;45.638;13.764;2023-03-01T09:49:10;19.30;47.80
75738;DHT22;64356;45.638;13.764;2023-03-01T09:51:37;19.30;47.60
75738;DHT22;64356;45.638;13.764;2023-03-01T09:54:04;19.20;46.70
75738;DHT22;64356;45.638;13.764;2023-03-01T09:56:37;19.20;46.60
75738;DHT22;64356;45.638;13.764;2023-03-01T09:59:30;19.20;46.90
75738;DHT22;64356;45.638;13.764;2023-03-01T10:10:32;19.20;48.00
75738;DHT22;64356;45.638;13.764;2023-03-01T10:13:02;19.20;48.50
75738;DHT22;64356;45.638;13.764;2023-03-01T10:15:41;19.20;48.20
75738;DHT22;64356;45.638;13.764;2023-03-01T10:18:19;19.20;48.10
75738;DHT22;64356;45.638;13.764;2023-03-01T10:21:02;19.20;49.30
75738;DHT22;64356;45.638;13.764;2023-03-01T10:23:37;19.30;49.70
75738;DHT22;64356;45.638;13.764;2023-03-01T10:29:06;19.30;48.70
75738;DHT22;64356;45.638;13.764;2023-03-01T10:31:43;19.30;48.70
75738;DHT22;64356;45.638;13.764;2023-03-01T10:34:21;19.40;49.30
75738;DHT22;64356;45.638;13.764;2023-03-01T10:36:50;19.40;49.10
75738;DHT22;64356;45.638;13.764;2023-03-01T10:39:22;19.40;48.90
75738;DHT22;64356;45.638;13.764;2023-03-01T10:42:03;19.40;48.40
75738;DHT22;64356;45.638;13.764;2023-03-01T10:44:43;19.40;47.50
75738;DHT22;64356;45.638;13.764;2023-03-01T10:47:21;19.40;47.20
75738;DHT22;64356;45.638;13.764;2023-03-01T10:49:57;19.30;47.70
75738;DHT22;64356;45.638;13.764;2023-03-01T10:52:36;19.40;48.70
75738;DHT22;64356;45.638;13.764;2023-03-01T10:55:24;19.40;49.00
75738;DHT22;64356;45.638;13.764;2023-03-01T10:58:16;19.40;48.80
75738;DHT22;64356;45.638;13.764;2023-03-01T11:03:16;19.40;49.40
75738;DHT22;64356;45.638;13.764;2023-03-01T11:05:59;19.40;49.60
75738;DHT22;64356;45.638;13.764;2023-03-01T11:11:51;19.40;49.90
75738;DHT22;64356;45.638;13.764;2023-03-01T11:16:28;19.40;50.10
75738;DHT22;64356;45.638;13.764;2023-03-01T11:21:33;19.40;50.00
75738;DHT22;64356;45.638;13.764;2023-03-01T11:24:01;19.50;51.20
75738;DHT22;64356;45.638;13.764;2023-03-01T11:26:30;19.50;51.50
75738;DHT22;64356;45.638;13.764;2023-03-01T11:29:05;19.50;51.60
75738;DHT22;64356;45.638;13.764;2023-03-01T11:31:33;19.50;51.90
75738;DHT22;64356;45.638;13.764;2023-03-01T11:34:07;19.50;51.50
75738;DHT22;64356;45.638;13.764;2023-03-01T11:36:49;19.50;50.70
75738;DHT22;64356;45.638;13.764;2023-03-01T11:39:33;19.50;49.90
75738;DHT22;64356;45.638;13.764;2023-03-01T11:45:03;19.50;49.80
75738;DHT22;64356;45.638;13.764;2023-03-01T11:47:44;19.50;49.30
75738;DHT22;64356;45.638;13.764;2023-03-01T11:50:37;19.50;49.10
75738;DHT22;64356;45.638;13.764;2023-03-01T12:10:01;19.50;49.10
75738;DHT22;64356;45.638;13.764;2023-03-01T12:18:45;19.50;49.90
75738;DHT22;64356;45.638;13.764;2023-03-01T12:21:58;19.50;50.20
75738;DHT22;64356;45.638;13.764;2023-03-01T12:24:31;19.50;50.80
75738;DHT22;64356;45.638;13.764;2023-03-01T12:29:34;19.60;50.50
75738;DHT22;64356;45.638;13.764;2023-03-01T12:52:52;19.40;48.20
75738;DHT22;64356;45.638;13.764;2023-03-01T12:55:39;19.60;43.40
75738;DHT22;64356;45.638;13.764;2023-03-01T13:03:28;20.90;40.80
75738;DHT22;64356;45.638;13.764;2023-03-01T13:08:44;21.70;40.50
75738;DHT22;64356;45.638;13.764;2023-03-01T13:11:21;22.00;40.60
75738;DHT22;64356;45.638;13.764;2023-03-01T13:13:48;22.20;40.50
75738;DHT22;64356;45.638;13.764;2023-03-01T13:16:41;22.30;39.70
75738;DHT22;64356;45.638;13.764;2023-03-01T13:19:22;22.30;39.50
75738;DHT22;64356;45.638;13.764;2023-03-01T13:21:50;22.40;38.80
75738;DHT22;64356;45.638;13.764;2023-03-01T13:29:53;22.40;37.80
75738;DHT22;64356;45.638;13.764;2023-03-01T13:32:31;22.40;37.80
75738;DHT22;64356;45.638;13.764;2023-03-01T13:37:45;22.40;37.60
75738;DHT22;64356;45.638;13.764;2023-03-01T13:42:53;22.40;37.20
75738;DHT22;64356;45.638;13.764;2023-03-01T13:45:36;22.50;37.10
75738;DHT22;64356;45.638;13.764;2023-03-01T13:48:18;22.50;37.20
75738;DHT22;64356;45.638;13.764;2023-03-01T13:50:51;22.60;37.60
75738;DHT22;64356;45.638;13.764;2023-03-01T13:53:20;22.60;38.00
75738;DHT22;64356;45.638;13.764;2023-03-01T13:58:53;22.60;39.80
75738;DHT22;64356;45.638;13.764;2023-03-01T14:01:34;22.50;39.80
75738;DHT22;64356;45.638;13.764;2023-03-01T14:04:01;22.40;40.30
75738;DHT22;64356;45.638;13.764;2023-03-01T14:06:28;22.40;40.90
75738;DHT22;64356;45.638;13.764;2023-03-01T14:17:13;22.00;41.40
75738;DHT22;64356;45.638;13.764;2023-03-01T14:19:46;21.50;42.00
75738;DHT22;64356;45.638;13.764;2023-03-01T14:22:30;21.00;41.80
75738;DHT22;64356;45.638;13.764;2023-03-01T14:25:02;20.60;41.40
75738;DHT22;64356;45.638;13.764;2023-03-01T14:27:33;20.40;41.10
75738;DHT22;64356;45.638;13.764;2023-03-01T14:30:04;20.10;41.30
75738;DHT22;64356;45.638;13.764;2023-03-01T14:32:35;20.00;40.80
75738;DHT22;64356;45.638;13.764;2023-03-01T14:35:01;19.80;40.90
75738;DHT22;64356;45.638;13.764;2023-03-01T14:37:30;19.80;41.20
75738;DHT22;64356;45.638;13.764;2023-03-01T14:39:58;19.60;41.40
75738;DHT22;64356;45.638;13.764;2023-03-01T14:42:33;19.60;41.90
75738;DHT22;64356;45.638;13.764;2023-03-01T14:45:01;19.50;42.20
75738;DHT22;64356;45.638;13.764;2023-03-01T14:47:32;19.50;42.80
75738;DHT22;64356;45.638;13.764;2023-03-01T14:50:08;19.50;43.30
75738;DHT22;64356;45.638;13.764;2023-03-01T14:52:40;19.50;43.90
75738;DHT22;64356;45.638;13.764;2023-03-01T14:55:20;19.50;44.30
75738;DHT22;64356;45.638;13.764;2023-03-01T14:57:50;19.50;44.50
75738;DHT22;64356;45.638;13.764;2023-03-01T15:00:27;19.50;45.10
75738;DHT22;64356;45.638;13.764;2023-03-01T15:02:55;19.40;45.00
75738;DHT22;64356;45.638;13.764;2023-03-01T15:05:32;19.50;45.30
75738;DHT22;64356;45.638;13.764;2023-03-01T15:08:01;19.40;45.50
75738;DHT22;64356;45.638;13.764;2023-03-01T15:10:34;19.40;45.70
75738;DHT22;64356;45.638;13.764;2023-03-01T15:13:14;19.40;45.90
75738;DHT22;64356;45.638;13.764;2023-03-01T15:15:47;19.40;46.00
75738;DHT22;64356;45.638;13.764;2023-03-01T15:18:14;19.40;46.20
75738;DHT22;64356;45.638;13.764;2023-03-01T15:20:41;19.40;46.20
75738;DHT22;64356;45.638;13.764;2023-03-01T15:23:34;19.40;46.20
75738;DHT22;64356;45.638;13.764;2023-03-01T15:26:02;19.40;46.40
75738;DHT22;64356;45.638;13.764;2023-03-01T15:28:34;19.30;46.70
75738;DHT22;64356;45.638;13.764;2023-03-01T15:31:12;19.40;47.00
75738;DHT22;64356;45.638;13.764;2023-03-01T15:33:42;19.40;47.00
75738;DHT22;64356;45.638;13.764;2023-03-01T15:39:27;19.40;47.00
75738;DHT22;64356;45.638;13.764;2023-03-01T15:41:55;19.30;47.10
75738;DHT22;64356;45.638;13.764;2023-03-01T15:44:32;19.40;47.10
75738;DHT22;64356;45.638;13.764;2023-03-01T15:46:59;19.40;46.80
75738;DHT22;64356;45.638;13.764;2023-03-01T15:49:41;19.50;47.30
75738;DHT22;64356;45.638;13.764;2023-03-01T15:52:17;20.20;45.60
75738;DHT22;64356;45.638;13.764;2023-03-01T15:54:44;20.90;43.90
75738;DHT22;64356;45.638;13.764;2023-03-01T15:57:14;21.30;43.20
75738;DHT22;64356;45.638;13.764;2023-03-01T15:59:41;21.60;42.60
75738;DHT22;64356;45.638;13.764;2023-03-01T16:02:11;21.80;42.40
75738;DHT22;64356;45.638;13.764;2023-03-01T16:04:38;22.00;42.10
75738;DHT22;64356;45.638;13.764;2023-03-01T16:07:04;22.10;42.30
75738;DHT22;64356;45.638;13.764;2023-03-01T16:09:29;22.20;42.40
75738;DHT22;64356;45.638;13.764;2023-03-01T16:11:55;22.20;40.90
75738;DHT22;64356;45.638;13.764;2023-03-01T16:14:21;22.30;41.20
75738;DHT22;64356;45.638;13.764;2023-03-01T16:16:48;22.30;41.00
75738;DHT22;64356;45.638;13.764;2023-03-01T16:19:14;22.40;41.10
75738;DHT22;64356;45.638;13.764;2023-03-01T16:21:41;22.40;41.00
75738;DHT22;64356;45.638;13.764;2023-03-01T16:24:08;22.40;40.70
75738;DHT22;64356;45.638;13.764;2023-03-01T16:26:34;22.50;40.70
75738;DHT22;64356;45.638;13.764;2023-03-01T16:29:01;22.60;40.80
75738;DHT22;64356;45.638;13.764;2023-03-01T16:31:27;22.60;41.00
75738;DHT22;64356;45.638;13.764;2023-03-01T16:33:55;22.60;40.90
75738;DHT22;64356;45.638;13.764;2023-03-01T16:36:23;22.60;40.80
75738;DHT22;64356;45.638;13.764;2023-03-01T16:38:50;22.70;40.50
75738;DHT22;64356;45.638;13.764;2023-03-01T16:41:19;22.80;40.50
75738;DHT22;64356;45.638;13.764;2023-03-01T16:43:45;22.90;40.10
75738;DHT22;64356;45.638;13.764;2023-03-01T16:46:17;22.90;40.20
75738;DHT22;64356;45.638;13.764;2023-03-01T16:48:43;23.00;40.20
75738;DHT22;64356;45.638;13.764;2023-03-01T16:51:09;23.00;40.30
75738;DHT22;64356;45.638;13.764;2023-03-01T16:53:36;23.10;40.40
75738;DHT22;64356;45.638;13.764;2023-03-01T16:56:04;23.10;39.60
75738;DHT22;64356;45.638;13.764;2023-03-01T16:58:31;23.10;39.90
75738;DHT22;64356;45.638;13.764;2023-03-01T17:01:02;23.20;39.80
75738;DHT22;64356;45.638;13.764;2023-03-01T17:03:28;23.20;39.70
75738;DHT22;64356;45.638;13.764;2023-03-01T17:05:55;23.10;40.00
75738;DHT22;64356;45.638;13.764;2023-03-01T17:08:20;23.10;40.20
75738;DHT22;64356;45.638;13.764;2023-03-01T17:10:46;23.00;40.40
75738;DHT22;64356;45.638;13.764;2023-03-01T17:13:12;23.10;40.30
75738;DHT22;64356;45.638;13.764;2023-03-01T17:15:39;22.80;40.90
75738;DHT22;64356;45.638;13.764;2023-03-01T17:18:06;22.30;41.50
75738;DHT22;64356;45.638;13.764;2023-03-01T17:20:31;21.90;42.20
75738;DHT22;64356;45.638;13.764;2023-03-01T17:22:57;21.50;42.90
75738;DHT22;64356;45.638;13.764;2023-03-01T17:25:23;21.20;43.40
75738;DHT22;64356;45.638;13.764;2023-03-01T17:27:49;21.00;43.80
75738;DHT22;64356;45.638;13.764;2023-03-01T17:30:14;20.80;44.20